sensor_id;sensor_type;location;lat;lon;timestamp;pressure;altitude;pressure_sealevel;temperature;humidity
62510;BME280;48558;48.242;11.654;2023-07-31T00:03:04;96362.31;;;14.95;99.99
62510;BME280;48558;48.242;11.654;2023-07-31T00:07:16;96365.25;;;14.86;100.00
62510;BME280;48558;48.242;11.654;2023-07-31T00:11:30;96353.97;;;14.70;100.00
62510;BME280;48558;48.242;11.654;2023-07-31T00:15:42;96360.78;;;14.49;100.00
62510;BME280;48558;48.242;11.654;2023-07-31T00:19:55;96370.09;;;14.46;100.00
62510;BME280;48558;48.242;11.654;2023-07-31T00:24:07;96373.00;;;14.36;100.00
62510;BME280;48558;48.242;11.654;2023-07-31T00:28:20;96360.34;;;14.76;99.87
62510;BME280;48558;48.242;11.654;2023-07-31T00:32:32;96360.25;;;14.90;100.00
62510;BME280;48558;48.242;11.654;2023-07-31T00:36:45;96348.56;;;14.86;100.00
62510;BME280;48558;48.242;11.654;2023-07-31T00:40:57;96345.16;;;14.77;100.00
62510;BME280;48558;48.242;11.654;2023-07-31T00:45:10;96349.06;;;14.85;100.00
62510;BME280;48558;48.242;11.654;2023-07-31T00:49:23;96358.34;;;15.02;99.88
62510;BME280;48558;48.242;11.654;2023-07-31T00:53:35;96346.72;;;15.03;100.00
62510;BME280;48558;48.242;11.654;2023-07-31T00:57:49;96351.00;;;14.99;100.00
62510;BME280;48558;48.242;11.654;2023-07-31T01:02:03;96341.97;;;15.09;99.72
62510;BME280;48558;48.242;11.654;2023-07-31T01:10:46;96335.72;;;15.15;100.00
62510;BME280;48558;48.242;11.654;2023-07-31T01:19:24;96335.72;;;15.15;100.00
62510;BME280;48558;48.242;11.654;2023-07-31T01:28:55;96328.94;;;15.21;100.00
62510;BME280;48558;48.242;11.654;2023-07-31T01:33:11;96314.22;;;15.15;100.00
62510;BME280;48558;48.242;11.654;2023-07-31T01:37:28;96310.41;;;15.18;100.00
62510;BME280;48558;48.242;11.654;2023-07-31T01:41:42;96321.28;;;15.16;100.00
62510;BME280;48558;48.242;11.654;2023-07-31T01:45:54;96316.81;;;15.24;100.00
62510;BME280;48558;48.242;11.654;2023-07-31T01:50:07;96318.88;;;15.29;100.00
62510;BME280;48558;48.242;11.654;2023-07-31T01:54:20;96315.38;;;15.34;100.00
62510;BME280;48558;48.242;11.654;2023-07-31T01:58:33;96319.97;;;15.37;100.00
62510;BME280;48558;48.242;11.654;2023-07-31T02:02:45;96327.50;;;15.31;100.00
62510;BME280;48558;48.242;11.654;2023-07-31T02:06:58;96316.81;;;15.24;100.00
62510;BME280;48558;48.242;11.654;2023-07-31T02:11:10;96316.69;;;15.13;100.00
62510;BME280;48558;48.242;11.654;2023-07-31T02:15:23;96312.31;;;15.01;100.00
62510;BME280;48558;48.242;11.654;2023-07-31T02:19:35;96305.16;;;14.94;100.00
62510;BME280;48558;48.242;11.654;2023-07-31T02:23:48;96297.25;;;14.87;100.00
62510;BME280;48558;48.242;11.654;2023-07-31T02:28:01;96295.66;;;14.81;100.00
62510;BME280;48558;48.242;11.654;2023-07-31T02:32:13;96291.88;;;14.84;100.00
62510;BME280;48558;48.242;11.654;2023-07-31T02:36:26;96290.66;;;14.85;100.00
62510;BME280;48558;48.242;11.654;2023-07-31T02:40:40;96292.88;;;14.81;100.00
62510;BME280;48558;48.242;11.654;2023-07-31T02:44:55;96271.06;;;14.74;100.00
62510;BME280;48558;48.242;11.654;2023-07-31T02:49:08;96272.38;;;14.78;100.00
62510;BME280;48558;48.242;11.654;2023-07-31T02:53:20;96256.78;;;14.61;100.00
62510;BME280;48558;48.242;11.654;2023-07-31T02:57:34;96263.31;;;14.58;100.00
62510;BME280;48558;48.242;11.654;2023-07-31T03:01:46;96275.34;;;14.29;100.00
62510;BME280;48558;48.242;11.654;2023-07-31T03:05:59;96272.38;;;14.12;100.00
62510;BME280;48558;48.242;11.654;2023-07-31T03:10:11;96261.63;;;14.00;100.00
62510;BME280;48558;48.242;11.654;2023-07-31T03:14:24;96264.72;;;13.87;100.00
62510;BME280;48558;48.242;11.654;2023-07-31T03:18:38;96271.19;;;13.79;100.00
62510;BME280;48558;48.242;11.654;2023-07-31T03:22:51;96260.38;;;13.66;100.00
62510;BME280;48558;48.242;11.654;2023-07-31T03:27:03;96269.91;;;13.80;100.00
62510;BME280;48558;48.242;11.654;2023-07-31T03:31:16;96279.25;;;13.97;100.00
62510;BME280;48558;48.242;11.654;2023-07-31T03:35:29;96274.72;;;14.19;100.00
62510;BME280;48558;48.242;11.654;2023-07-31T03:39:42;96273.16;;;14.33;100.00
62510;BME280;48558;48.242;11.654;2023-07-31T03:43:54;96272.22;;;14.42;100.00
62510;BME280;48558;48.242;11.654;2023-07-31T03:48:08;96285.00;;;14.54;100.00
62510;BME280;48558;48.242;11.654;2023-07-31T03:52:21;96280.00;;;14.58;100.00
62510;BME280;48558;48.242;11.654;2023-07-31T03:56:34;96270.78;;;14.72;100.00
62510;BME280;48558;48.242;11.654;2023-07-31T04:00:47;96274.72;;;14.60;100.00
62510;BME280;48558;48.242;11.654;2023-07-31T04:04:59;96281.91;;;14.72;100.00
62510;BME280;48558;48.242;11.654;2023-07-31T04:09:12;96263.03;;;14.81;100.00
62510;BME280;48558;48.242;11.654;2023-07-31T04:13:25;96254.31;;;14.94;100.00
62510;BME280;48558;48.242;11.654;2023-07-31T04:17:39;96265.28;;;15.08;100.00
62510;BME280;48558;48.242;11.654;2023-07-31T04:21:52;96261.25;;;15.09;100.00
62510;BME280;48558;48.242;11.654;2023-07-31T04:26:04;96251.06;;;15.32;100.00
62510;BME280;48558;48.242;11.654;2023-07-31T04:30:17;96245.47;;;15.58;100.00
62510;BME280;48558;48.242;11.654;2023-07-31T04:34:29;96258.13;;;15.59;100.00
62510;BME280;48558;48.242;11.654;2023-07-31T04:38:42;96259.72;;;15.76;100.00
62510;BME280;48558;48.242;11.654;2023-07-31T04:42:55;96252.56;;;16.07;100.00
62510;BME280;48558;48.242;11.654;2023-07-31T04:47:07;96257.69;;;16.25;100.00
62510;BME280;48558;48.242;11.654;2023-07-31T04:51:20;96253.22;;;16.44;100.00
62510;BME280;48558;48.242;11.654;2023-07-31T04:55:33;96250.25;;;16.64;99.64
62510;BME280;48558;48.242;11.654;2023-07-31T04:59:46;96240.38;;;16.69;98.85
62510;BME280;48558;48.242;11.654;2023-07-31T05:04:01;96245.44;;;16.76;98.79
62510;BME280;48558;48.242;11.654;2023-07-31T05:08:14;96219.06;;;16.93;97.15
62510;BME280;48558;48.242;11.654;2023-07-31T05:12:29;96231.50;;;17.14;97.10
62510;BME280;48558;48.242;11.654;2023-07-31T05:16:42;96230.47;;;17.51;96.25
62510;BME280;48558;48.242;11.654;2023-07-31T05:20:55;96233.75;;;17.77;92.74
62510;BME280;48558;48.242;11.654;2023-07-31T05:25:08;96229.91;;;17.80;93.00
62510;BME280;48558;48.242;11.654;2023-07-31T05:29:21;96232.41;;;18.00;89.92
62510;BME280;48558;48.242;11.654;2023-07-31T05:33:33;96227.47;;;18.23;87.54
62510;BME280;48558;48.242;11.654;2023-07-31T05:37:46;96239.50;;;18.64;83.35
62510;BME280;48558;48.242;11.654;2023-07-31T05:41:58;96239.13;;;18.84;80.80
62510;BME280;48558;48.242;11.654;2023-07-31T05:46:11;96237.66;;;19.13;78.71
62510;BME280;48558;48.242;11.654;2023-07-31T05:50:24;96227.00;;;19.41;73.92
62510;BME280;48558;48.242;11.654;2023-07-31T05:54:36;96240.13;;;19.52;71.72
62510;BME280;48558;48.242;11.654;2023-07-31T05:58:49;96237.00;;;19.31;71.87
62510;BME280;48558;48.242;11.654;2023-07-31T06:03:02;96238.47;;;19.08;71.00
62510;BME280;48558;48.242;11.654;2023-07-31T06:07:15;96224.06;;;18.93;71.33
62510;BME280;48558;48.242;11.654;2023-07-31T06:11:28;96237.94;;;19.09;71.10
62510;BME280;48558;48.242;11.654;2023-07-31T06:15:40;96244.34;;;19.34;69.99
62510;BME280;48558;48.242;11.654;2023-07-31T06:19:58;96239.56;;;19.29;70.21
62510;BME280;48558;48.242;11.654;2023-07-31T06:24:11;96251.56;;;19.59;70.19
62510;BME280;48558;48.242;11.654;2023-07-31T06:28:31;96246.69;;;19.30;69.16
62510;BME280;48558;48.242;11.654;2023-07-31T06:32:44;96244.69;;;19.25;70.04
62510;BME280;48558;48.242;11.654;2023-07-31T06:36:56;96255.25;;;19.43;68.82
62510;BME280;48558;48.242;11.654;2023-07-31T06:41:09;96244.72;;;19.55;68.15
62510;BME280;48558;48.242;11.654;2023-07-31T06:45:22;96233.28;;;19.77;67.73
62510;BME280;48558;48.242;11.654;2023-07-31T06:49:35;96251.41;;;19.46;69.58
62510;BME280;48558;48.242;11.654;2023-07-31T06:53:47;96246.94;;;19.62;69.10
62510;BME280;48558;48.242;11.654;2023-07-31T06:58:00;96236.03;;;19.82;66.76
62510;BME280;48558;48.242;11.654;2023-07-31T07:02:13;96233.81;;;20.24;64.11
62510;BME280;48558;48.242;11.654;2023-07-31T07:06:25;96224.66;;;20.18;65.07
62510;BME280;48558;48.242;11.654;2023-07-31T07:10:38;96236.19;;;20.14;65.45
62510;BME280;48558;48.242;11.654;2023-07-31T07:14:53;96218.50;;;20.43;63.58
62510;BME280;48558;48.242;11.654;2023-07-31T07:19:05;96230.41;;;20.31;63.48
62510;BME280;48558;48.242;11.654;2023-07-31T07:23:18;96219.03;;;20.18;63.81
62510;BME280;48558;48.242;11.654;2023-07-31T07:27:32;96225.31;;;20.29;62.83
62510;BME280;48558;48.242;11.654;2023-07-31T07:31:44;96230.03;;;20.40;63.53
62510;BME280;48558;48.242;11.654;2023-07-31T07:36:00;96210.31;;;20.64;63.44
62510;BME280;48558;48.242;11.654;2023-07-31T07:40:14;96220.47;;;20.67;62.50
62510;BME280;48558;48.242;11.654;2023-07-31T07:44:26;96222.75;;;20.50;63.51
62510;BME280;48558;48.242;11.654;2023-07-31T07:48:39;96220.28;;;20.22;63.75
62510;BME280;48558;48.242;11.654;2023-07-31T07:52:51;96204.63;;;20.32;63.23
62510;BME280;48558;48.242;11.654;2023-07-31T07:57:04;96195.66;;;20.71;62.84
62510;BME280;48558;48.242;11.654;2023-07-31T08:01:16;96199.13;;;21.27;61.23
62510;BME280;48558;48.242;11.654;2023-07-31T08:05:30;96190.06;;;21.03;60.67
62510;BME280;48558;48.242;11.654;2023-07-31T08:09:46;96202.78;;;21.22;60.70
62510;BME280;48558;48.242;11.654;2023-07-31T08:13:58;96201.78;;;21.65;59.19
62510;BME280;48558;48.242;11.654;2023-07-31T08:18:11;96195.81;;;22.00;58.50
62510;BME280;48558;48.242;11.654;2023-07-31T08:22:24;96190.38;;;23.09;55.53
62510;BME280;48558;48.242;11.654;2023-07-31T08:26:38;96193.13;;;23.91;50.36
62510;BME280;48558;48.242;11.654;2023-07-31T08:30:51;96194.88;;;23.74;51.77
62510;BME280;48558;48.242;11.654;2023-07-31T08:35:04;96189.88;;;23.59;51.66
62510;BME280;48558;48.242;11.654;2023-07-31T08:39:16;96192.94;;;22.26;54.09
62510;BME280;48558;48.242;11.654;2023-07-31T08:43:29;96197.63;;;22.83;51.75
62510;BME280;48558;48.242;11.654;2023-07-31T08:47:45;96187.75;;;22.17;53.33
62510;BME280;48558;48.242;11.654;2023-07-31T08:51:59;96195.03;;;21.86;53.49
62510;BME280;48558;48.242;11.654;2023-07-31T08:56:12;96199.22;;;21.80;54.44
62510;BME280;48558;48.242;11.654;2023-07-31T09:00:27;96192.00;;;21.39;54.40
62510;BME280;48558;48.242;11.654;2023-07-31T09:04:40;96180.63;;;20.50;57.40
62510;BME280;48558;48.242;11.654;2023-07-31T09:08:53;96201.44;;;20.60;62.15
62510;BME280;48558;48.242;11.654;2023-07-31T09:13:06;96198.47;;;20.71;59.63
62510;BME280;48558;48.242;11.654;2023-07-31T09:17:50;96187.72;;;20.88;59.07
62510;BME280;48558;48.242;11.654;2023-07-31T09:22:11;96173.72;;;21.20;56.43
62510;BME280;48558;48.242;11.654;2023-07-31T09:26:30;96185.56;;;22.49;56.56
62510;BME280;48558;48.242;11.654;2023-07-31T09:30:51;96182.84;;;22.91;51.67
62510;BME280;48558;48.242;11.654;2023-07-31T09:39:48;96176.00;;;22.65;52.93
62510;BME280;48558;48.242;11.654;2023-07-31T09:44:06;96174.94;;;22.42;52.20
62510;BME280;48558;48.242;11.654;2023-07-31T09:48:19;96169.88;;;22.41;51.47
62510;BME280;48558;48.242;11.654;2023-07-31T09:52:32;96181.44;;;23.38;51.24
62510;BME280;48558;48.242;11.654;2023-07-31T09:56:48;96173.91;;;24.18;49.05
62510;BME280;48558;48.242;11.654;2023-07-31T10:01:01;96150.50;;;24.46;48.20
62510;BME280;48558;48.242;11.654;2023-07-31T10:05:15;96141.63;;;24.34;48.74
62510;BME280;48558;48.242;11.654;2023-07-31T10:09:31;96126.81;;;24.05;48.70
62510;BME280;48558;48.242;11.654;2023-07-31T10:13:44;96134.78;;;24.73;48.54
62510;BME280;48558;48.242;11.654;2023-07-31T10:17:57;96115.97;;;24.75;46.05
62510;BME280;48558;48.242;11.654;2023-07-31T10:22:11;96104.91;;;25.08;44.81
62510;BME280;48558;48.242;11.654;2023-07-31T10:26:24;96098.25;;;24.16;46.71
62510;BME280;48558;48.242;11.654;2023-07-31T10:30:38;96088.88;;;24.29;47.22
62510;BME280;48558;48.242;11.654;2023-07-31T10:34:52;96088.09;;;25.02;46.04
62510;BME280;48558;48.242;11.654;2023-07-31T10:39:34;96090.16;;;26.64;42.64
62510;BME280;48558;48.242;11.654;2023-07-31T10:43:54;96095.91;;;26.57;44.47
62510;BME280;48558;48.242;11.654;2023-07-31T10:48:14;96094.69;;;25.73;44.68
62510;BME280;48558;48.242;11.654;2023-07-31T10:52:34;96091.00;;;26.10;44.41
62510;BME280;48558;48.242;11.654;2023-07-31T10:56:50;96092.97;;;25.85;43.39
62510;BME280;48558;48.242;11.654;2023-07-31T11:01:04;96077.88;;;25.67;44.18
62510;BME280;48558;48.242;11.654;2023-07-31T11:05:18;96071.34;;;25.12;44.83
62510;BME280;48558;48.242;11.654;2023-07-31T11:09:34;96084.84;;;25.89;44.37
62510;BME280;48558;48.242;11.654;2023-07-31T11:13:49;96069.72;;;25.94;45.28
62510;BME280;48558;48.242;11.654;2023-07-31T11:18:04;96061.72;;;25.45;44.35
62510;BME280;48558;48.242;11.654;2023-07-31T11:22:20;96046.41;;;26.18;43.07
62510;BME280;48558;48.242;11.654;2023-07-31T11:26:33;96048.97;;;25.84;43.12
62510;BME280;48558;48.242;11.654;2023-07-31T11:30:46;96047.78;;;25.09;45.99
62510;BME280;48558;48.242;11.654;2023-07-31T11:34:58;96036.25;;;25.52;44.63
62510;BME280;48558;48.242;11.654;2023-07-31T11:39:11;96028.88;;;26.44;43.96
62510;BME280;48558;48.242;11.654;2023-07-31T11:43:24;96027.09;;;25.84;44.07
62510;BME280;48558;48.242;11.654;2023-07-31T11:47:37;96028.38;;;26.95;42.58
62510;BME280;48558;48.242;11.654;2023-07-31T11:51:50;96009.38;;;27.64;44.54
62510;BME280;48558;48.242;11.654;2023-07-31T11:56:04;96008.06;;;26.81;41.29
62510;BME280;48558;48.242;11.654;2023-07-31T12:00:17;95993.31;;;27.25;40.00
62510;BME280;48558;48.242;11.654;2023-07-31T12:04:31;95977.59;;;28.26;40.71
62510;BME280;48558;48.242;11.654;2023-07-31T12:08:43;95987.56;;;28.45;37.96
62510;BME280;48558;48.242;11.654;2023-07-31T12:13:26;95994.81;;;28.91;38.21
62510;BME280;48558;48.242;11.654;2023-07-31T12:17:38;95970.28;;;28.06;39.18
62510;BME280;48558;48.242;11.654;2023-07-31T12:21:51;95972.38;;;28.06;38.99
62510;BME280;48558;48.242;11.654;2023-07-31T12:26:14;95962.44;;;28.51;39.60
62510;BME280;48558;48.242;11.654;2023-07-31T12:30:35;95942.78;;;29.27;38.10
62510;BME280;48558;48.242;11.654;2023-07-31T12:34:47;95956.06;;;27.89;38.92
62510;BME280;48558;48.242;11.654;2023-07-31T12:39:00;95947.66;;;27.30;40.62
62510;BME280;48558;48.242;11.654;2023-07-31T12:43:13;95939.88;;;26.22;41.53
62510;BME280;48558;48.242;11.654;2023-07-31T12:47:25;95930.25;;;26.50;42.18
62510;BME280;48558;48.242;11.654;2023-07-31T12:51:38;95930.34;;;27.87;40.18
62510;BME280;48558;48.242;11.654;2023-07-31T12:55:50;95912.22;;;28.26;38.65
62510;BME280;48558;48.242;11.654;2023-07-31T13:00:03;95913.16;;;28.65;38.28
62510;BME280;48558;48.242;11.654;2023-07-31T13:04:16;95913.81;;;28.47;38.67
62510;BME280;48558;48.242;11.654;2023-07-31T13:08:29;95921.44;;;26.88;40.24
62510;BME280;48558;48.242;11.654;2023-07-31T13:12:41;95912.16;;;26.21;41.13
62510;BME280;48558;48.242;11.654;2023-07-31T13:16:54;95899.88;;;26.43;41.47
62510;BME280;48558;48.242;11.654;2023-07-31T13:21:06;95912.25;;;28.00;39.37
62510;BME280;48558;48.242;11.654;2023-07-31T13:25:19;95899.88;;;27.88;40.08
62510;BME280;48558;48.242;11.654;2023-07-31T13:29:31;95892.47;;;27.75;40.29
62510;BME280;48558;48.242;11.654;2023-07-31T13:33:44;95869.09;;;27.67;39.65
62510;BME280;48558;48.242;11.654;2023-07-31T13:37:57;95870.47;;;28.19;38.84
62510;BME280;48558;48.242;11.654;2023-07-31T13:42:09;95863.75;;;27.71;39.08
62510;BME280;48558;48.242;11.654;2023-07-31T13:46:24;95860.53;;;28.47;38.59
62510;BME280;48558;48.242;11.654;2023-07-31T13:50:37;95861.25;;;28.93;38.15
62510;BME280;48558;48.242;11.654;2023-07-31T13:54:50;95855.56;;;29.79;36.58
62510;BME280;48558;48.242;11.654;2023-07-31T13:59:02;95846.00;;;29.08;38.13
62510;BME280;48558;48.242;11.654;2023-07-31T14:03:15;95840.66;;;28.47;38.48
62510;BME280;48558;48.242;11.654;2023-07-31T14:07:28;95841.38;;;29.22;36.99
62510;BME280;48558;48.242;11.654;2023-07-31T14:11:40;95842.41;;;28.98;36.77
62510;BME280;48558;48.242;11.654;2023-07-31T14:15:53;95843.53;;;28.20;39.77
62510;BME280;48558;48.242;11.654;2023-07-31T14:20:06;95841.19;;;28.26;40.66
62510;BME280;48558;48.242;11.654;2023-07-31T14:24:19;95833.31;;;28.44;38.46
62510;BME280;48558;48.242;11.654;2023-07-31T14:28:32;95834.53;;;27.17;40.52
62510;BME280;48558;48.242;11.654;2023-07-31T14:32:45;95836.91;;;27.55;40.95
62510;BME280;48558;48.242;11.654;2023-07-31T14:36:57;95840.88;;;27.42;40.20
62510;BME280;48558;48.242;11.654;2023-07-31T14:41:10;95845.72;;;26.56;41.23
62510;BME280;48558;48.242;11.654;2023-07-31T14:45:23;95837.56;;;26.60;41.84
62510;BME280;48558;48.242;11.654;2023-07-31T14:49:35;95825.63;;;25.71;42.69
62510;BME280;48558;48.242;11.654;2023-07-31T14:53:48;95822.31;;;25.57;44.82
62510;BME280;48558;48.242;11.654;2023-07-31T14:58:00;95826.75;;;25.68;43.49
62510;BME280;48558;48.242;11.654;2023-07-31T15:02:13;95819.34;;;26.29;44.79
62510;BME280;48558;48.242;11.654;2023-07-31T15:06:26;95822.84;;;25.88;43.38
62510;BME280;48558;48.242;11.654;2023-07-31T15:10:39;95815.41;;;25.35;44.15
62510;BME280;48558;48.242;11.654;2023-07-31T15:14:51;95826.13;;;25.44;44.59
62510;BME280;48558;48.242;11.654;2023-07-31T15:19:04;95828.16;;;25.12;45.00
62510;BME280;48558;48.242;11.654;2023-07-31T15:23:17;95808.00;;;25.08;45.55
62510;BME280;48558;48.242;11.654;2023-07-31T15:27:30;95824.31;;;24.69;46.60
62510;BME280;48558;48.242;11.654;2023-07-31T15:31:43;95817.72;;;24.67;48.05
62510;BME280;48558;48.242;11.654;2023-07-31T15:35:55;95819.59;;;24.64;46.95
62510;BME280;48558;48.242;11.654;2023-07-31T15:40:10;95817.38;;;24.02;48.38
62510;BME280;48558;48.242;11.654;2023-07-31T15:44:22;95811.50;;;23.70;47.51
62510;BME280;48558;48.242;11.654;2023-07-31T15:48:35;95813.09;;;23.28;49.19
62510;BME280;48558;48.242;11.654;2023-07-31T15:52:47;95811.34;;;23.02;50.97
62510;BME280;48558;48.242;11.654;2023-07-31T15:57:00;95814.72;;;22.65;55.36
62510;BME280;48558;48.242;11.654;2023-07-31T16:01:12;95806.16;;;22.50;56.35
62510;BME280;48558;48.242;11.654;2023-07-31T16:05:25;95802.50;;;22.62;56.16
62510;BME280;48558;48.242;11.654;2023-07-31T16:09:37;95800.06;;;22.66;55.00
62510;BME280;48558;48.242;11.654;2023-07-31T16:13:50;95790.91;;;22.73;55.16
62510;BME280;48558;48.242;11.654;2023-07-31T16:18:03;95789.00;;;22.68;56.04
62510;BME280;48558;48.242;11.654;2023-07-31T16:22:15;95785.88;;;22.51;56.15
62510;BME280;48558;48.242;11.654;2023-07-31T16:26:28;95781.41;;;22.56;55.08
62510;BME280;48558;48.242;11.654;2023-07-31T16:30:41;95773.59;;;22.41;55.54
62510;BME280;48558;48.242;11.654;2023-07-31T16:34:54;95781.72;;;22.45;55.79
62510;BME280;48558;48.242;11.654;2023-07-31T16:39:06;95786.81;;;22.18;54.05
62510;BME280;48558;48.242;11.654;2023-07-31T16:43:19;95784.69;;;22.11;54.57
62510;BME280;48558;48.242;11.654;2023-07-31T16:47:32;95779.56;;;22.02;55.53
62510;BME280;48558;48.242;11.654;2023-07-31T16:51:44;95773.19;;;22.01;55.01
62510;BME280;48558;48.242;11.654;2023-07-31T16:55:57;95773.31;;;21.96;55.87
62510;BME280;48558;48.242;11.654;2023-07-31T17:00:11;95759.59;;;21.92;54.97
62510;BME280;48558;48.242;11.654;2023-07-31T17:04:24;95779.97;;;22.34;54.72
62510;BME280;48558;48.242;11.654;2023-07-31T17:08:37;95771.41;;;22.47;54.61
62510;BME280;48558;48.242;11.654;2023-07-31T17:12:49;95774.97;;;22.48;53.91
62510;BME280;48558;48.242;11.654;2023-07-31T17:17:02;95759.00;;;22.43;54.36
62510;BME280;48558;48.242;11.654;2023-07-31T17:21:15;95739.91;;;21.92;55.88
62510;BME280;48558;48.242;11.654;2023-07-31T17:25:28;95761.88;;;22.22;55.30
62510;BME280;48558;48.242;11.654;2023-07-31T17:29:40;95758.50;;;22.24;55.65
62510;BME280;48558;48.242;11.654;2023-07-31T17:33:53;95756.06;;;22.20;56.71
62510;BME280;48558;48.242;11.654;2023-07-31T17:38:06;95751.41;;;22.30;57.96
62510;BME280;48558;48.242;11.654;2023-07-31T17:42:19;95753.91;;;22.41;56.87
62510;BME280;48558;48.242;11.654;2023-07-31T17:46:31;95741.94;;;22.48;55.93
62510;BME280;48558;48.242;11.654;2023-07-31T17:50:51;95727.84;;;22.48;55.99
62510;BME280;48558;48.242;11.654;2023-07-31T17:55:04;95724.22;;;22.33;55.79
62510;BME280;48558;48.242;11.654;2023-07-31T17:59:17;95730.97;;;22.01;56.95
62510;BME280;48558;48.242;11.654;2023-07-31T18:03:30;95718.66;;;21.84;58.30
62510;BME280;48558;48.242;11.654;2023-07-31T18:07:43;95716.69;;;21.51;60.46
62510;BME280;48558;48.242;11.654;2023-07-31T18:11:56;95723.41;;;21.48;61.39
62510;BME280;48558;48.242;11.654;2023-07-31T18:16:09;95719.22;;;21.41;59.94
62510;BME280;48558;48.242;11.654;2023-07-31T18:20:22;95728.22;;;21.19;62.48
62510;BME280;48558;48.242;11.654;2023-07-31T18:24:35;95714.78;;;21.25;64.40
62510;BME280;48558;48.242;11.654;2023-07-31T18:28:47;95701.59;;;21.20;65.09
62510;BME280;48558;48.242;11.654;2023-07-31T18:33:01;95707.84;;;21.05;68.40
62510;BME280;48558;48.242;11.654;2023-07-31T18:37:13;95707.13;;;20.92;70.06
62510;BME280;48558;48.242;11.654;2023-07-31T18:41:26;95700.69;;;20.70;71.37
62510;BME280;48558;48.242;11.654;2023-07-31T18:45:39;95695.16;;;20.31;75.46
62510;BME280;48558;48.242;11.654;2023-07-31T18:49:51;95699.91;;;19.97;79.42
62510;BME280;48558;48.242;11.654;2023-07-31T18:54:04;95698.50;;;19.77;80.16
62510;BME280;48558;48.242;11.654;2023-07-31T18:58:17;95694.16;;;19.50;81.99
62510;BME280;48558;48.242;11.654;2023-07-31T19:02:29;95694.50;;;19.15;84.42
62510;BME280;48558;48.242;11.654;2023-07-31T19:06:42;95692.06;;;18.93;86.59
62510;BME280;48558;48.242;11.654;2023-07-31T19:10:54;95685.97;;;18.76;86.55
62510;BME280;48558;48.242;11.654;2023-07-31T19:15:08;95702.31;;;18.72;87.90
62510;BME280;48558;48.242;11.654;2023-07-31T19:19:22;95697.66;;;18.93;85.49
62510;BME280;48558;48.242;11.654;2023-07-31T19:23:36;95697.97;;;19.21;84.94
62510;BME280;48558;48.242;11.654;2023-07-31T19:27:49;95681.25;;;18.84;87.29
62510;BME280;48558;48.242;11.654;2023-07-31T19:32:07;95698.28;;;18.86;89.08
62510;BME280;48558;48.242;11.654;2023-07-31T19:36:20;95703.06;;;18.53;91.63
62510;BME280;48558;48.242;11.654;2023-07-31T19:40:33;95707.41;;;18.30;93.66
62510;BME280;48558;48.242;11.654;2023-07-31T19:44:45;95709.75;;;18.26;94.44
62510;BME280;48558;48.242;11.654;2023-07-31T19:48:58;95713.25;;;18.32;95.10
62510;BME280;48558;48.242;11.654;2023-07-31T19:53:11;95711.59;;;18.42;97.18
62510;BME280;48558;48.242;11.654;2023-07-31T19:57:24;95725.00;;;18.49;100.00
62510;BME280;48558;48.242;11.654;2023-07-31T20:01:37;95710.09;;;18.60;100.00
62510;BME280;48558;48.242;11.654;2023-07-31T20:05:52;95698.53;;;18.69;97.52
62510;BME280;48558;48.242;11.654;2023-07-31T20:10:05;95690.34;;;18.71;98.30
62510;BME280;48558;48.242;11.654;2023-07-31T20:14:18;95687.78;;;18.54;100.00
62510;BME280;48558;48.242;11.654;2023-07-31T20:18:30;95689.31;;;18.55;99.74
62510;BME280;48558;48.242;11.654;2023-07-31T20:22:43;95686.34;;;18.29;99.01
62510;BME280;48558;48.242;11.654;2023-07-31T20:26:56;95673.31;;;18.32;100.00
62510;BME280;48558;48.242;11.654;2023-07-31T20:31:08;95685.81;;;18.31;100.00
62510;BME280;48558;48.242;11.654;2023-07-31T20:35:21;95668.47;;;18.32;100.00
62510;BME280;48558;48.242;11.654;2023-07-31T20:39:34;95651.03;;;18.08;100.00
62510;BME280;48558;48.242;11.654;2023-07-31T20:43:47;95648.09;;;18.00;100.00
62510;BME280;48558;48.242;11.654;2023-07-31T20:47:59;95650.56;;;18.04;100.00
62510;BME280;48558;48.242;11.654;2023-07-31T20:52:12;95654.03;;;17.91;100.00
62510;BME280;48558;48.242;11.654;2023-07-31T20:56:24;95655.09;;;17.88;100.00
62510;BME280;48558;48.242;11.654;2023-07-31T21:00:37;95649.94;;;17.92;100.00
62510;BME280;48558;48.242;11.654;2023-07-31T21:04:51;95647.78;;;18.04;100.00
62510;BME280;48558;48.242;11.654;2023-07-31T21:09:04;95641.66;;;18.24;100.00
62510;BME280;48558;48.242;11.654;2023-07-31T21:13:17;95636.53;;;18.46;100.00
62510;BME280;48558;48.242;11.654;2023-07-31T21:17:30;95627.44;;;18.40;100.00
62510;BME280;48558;48.242;11.654;2023-07-31T21:21:43;95618.34;;;18.34;100.00
62510;BME280;48558;48.242;11.654;2023-07-31T21:25:55;95622.41;;;18.20;100.00
62510;BME280;48558;48.242;11.654;2023-07-31T21:30:08;95610.06;;;18.10;100.00
62510;BME280;48558;48.242;11.654;2023-07-31T21:34:20;95612.25;;;18.17;100.00
62510;BME280;48558;48.242;11.654;2023-07-31T21:38:33;95597.28;;;18.33;96.41
62510;BME280;48558;48.242;11.654;2023-07-31T21:42:48;95600.84;;;18.34;92.96
62510;BME280;48558;48.242;11.654;2023-07-31T21:47:01;95597.50;;;18.35;96.96
62510;BME280;48558;48.242;11.654;2023-07-31T21:51:14;95599.31;;;18.33;100.00
62510;BME280;48558;48.242;11.654;2023-07-31T21:55:26;95589.19;;;18.30;93.02
62510;BME280;48558;48.242;11.654;2023-07-31T21:59:40;95576.78;;;18.25;96.08
62510;BME280;48558;48.242;11.654;2023-07-31T22:03:53;95582.09;;;18.10;97.82
62510;BME280;48558;48.242;11.654;2023-07-31T22:08:05;95570.69;;;18.08;99.36
62510;BME280;48558;48.242;11.654;2023-07-31T22:12:18;95572.88;;;18.15;95.44
62510;BME280;48558;48.242;11.654;2023-07-31T22:16:32;95563.19;;;18.16;92.56
62510;BME280;48558;48.242;11.654;2023-07-31T22:20:50;95562.59;;;18.23;94.04